createdAt,value
2022-08-12T00:01:12.338Z,0.80
2022-08-12T00:03:57.899Z,0.98
2022-08-12T00:06:46.176Z,0.90
2022-08-12T00:09:33.692Z,1.13
2022-08-12T00:12:19.759Z,0.80
2022-08-12T00:15:04.950Z,0.90
2022-08-12T00:17:50.374Z,1.10
2022-08-12T00:20:35.955Z,1.23
2022-08-12T00:23:26.190Z,1.27
2022-08-12T00:26:22.930Z,1.48
2022-08-12T00:29:11.155Z,1.10
2022-08-12T00:31:56.725Z,0.90
2022-08-12T00:34:42.186Z,1.15
2022-08-12T00:37:28.340Z,0.90
2022-08-12T00:40:15.140Z,1.10
2022-08-12T00:42:43.407Z,0.90
2022-08-12T00:45:11.992Z,1.05
2022-08-12T00:47:41.267Z,1.08
2022-08-12T00:50:18.032Z,0.95
2022-08-12T00:52:47.052Z,1.52
2022-08-12T00:55:15.827Z,1.38
2022-08-12T00:57:48.823Z,1.02
2022-08-12T01:00:21.506Z,1.20
2022-08-12T01:02:53.184Z,1.20
2022-08-12T01:05:40.815Z,1.10
2022-08-12T01:08:27.029Z,1.48
2022-08-12T01:11:15.147Z,1.05
2022-08-12T01:13:49.175Z,1.15
2022-08-12T01:16:22.695Z,0.98
2022-08-12T01:18:53.853Z,1.10
2022-08-12T01:21:55.745Z,0.98
2022-08-12T01:24:58.881Z,1.10
2022-08-12T01:27:28.608Z,1.15
2022-08-12T01:29:59.198Z,1.10
2022-08-12T01:32:30.191Z,0.98
2022-08-12T01:35:07.033Z,1.10
2022-08-12T01:37:43.408Z,0.98
2022-08-12T01:40:35.755Z,0.98
2022-08-12T01:43:10.120Z,1.10
2022-08-12T01:45:46.949Z,1.00
2022-08-12T01:48:27.117Z,1.10
2022-08-12T01:51:06.780Z,0.90
2022-08-12T01:54:05.848Z,1.00
2022-08-12T01:56:48.680Z,1.23
2022-08-12T01:59:50.366Z,1.05
2022-08-12T02:02:23.275Z,1.08
2022-08-12T02:05:26.452Z,1.13
2022-08-12T02:08:28.750Z,1.50
2022-08-12T02:11:16.796Z,1.27
2022-08-12T02:14:18.352Z,1.13
2022-08-12T02:17:09.100Z,1.27
2022-08-12T02:19:50.700Z,1.10
2022-08-12T02:22:29.143Z,1.20
2022-08-12T02:25:06.314Z,1.33
2022-08-12T02:27:39.538Z,1.10
2022-08-12T02:30:12.146Z,1.40
2022-08-12T02:32:43.608Z,1.60
2022-08-12T02:35:15.231Z,1.83
2022-08-12T02:37:45.464Z,1.02
2022-08-12T02:40:15.612Z,1.50
2022-08-12T02:42:53.894Z,1.27
2022-08-12T02:45:36.192Z,1.15
2022-08-12T02:48:09.416Z,1.13
2022-08-12T02:50:46.143Z,1.40
2022-08-12T02:53:15.560Z,1.40
2022-08-12T02:55:45.694Z,1.17
2022-08-12T02:58:14.954Z,1.20
2022-08-12T03:00:45.815Z,1.27
2022-08-12T03:05:52.518Z,1.20
2022-08-12T03:08:31.850Z,1.20
2022-08-12T03:11:07.899Z,1.30
2022-08-12T03:13:46.839Z,1.30
2022-08-12T03:16:16.213Z,1.50
2022-08-12T03:18:45.959Z,1.20
2022-08-12T03:21:53.159Z,1.17
2022-08-12T03:24:08.929Z,1.30
2022-08-12T03:26:38.214Z,1.48
2022-08-12T03:29:07.749Z,1.30
2022-08-12T03:31:37.231Z,1.30
2022-08-12T03:34:08.462Z,1.40
2022-08-12T03:36:39.413Z,1.38
2022-08-12T03:42:25.843Z,1.35
2022-08-12T03:45:42.912Z,1.38
2022-08-12T03:48:40.084Z,1.40
2022-08-12T03:51:27.326Z,1.08
2022-08-12T03:54:13.323Z,1.33
2022-08-12T03:56:59.096Z,1.40
2022-08-12T03:59:44.724Z,1.10
2022-08-12T04:02:15.832Z,1.75
2022-08-12T04:04:46.444Z,1.45
2022-08-12T04:07:16.885Z,1.88
2022-08-12T04:09:47.697Z,1.40
2022-08-12T04:15:03.374Z,1.10
2022-08-12T04:17:32.718Z,1.27
2022-08-12T04:20:02.206Z,1.25
2022-08-12T04:22:31.057Z,1.83
2022-08-12T04:25:03.152Z,1.50
2022-08-12T04:27:32.675Z,1.38
2022-08-12T04:30:21.459Z,1.60
2022-08-12T04:32:50.942Z,1.45
2022-08-12T04:35:21.260Z,1.30
2022-08-12T04:37:59.718Z,1.52
2022-08-12T04:40:30.752Z,1.42
2022-08-12T04:43:00.966Z,1.35
2022-08-12T04:45:29.179Z,1.60
2022-08-12T04:47:57.991Z,1.65
2022-08-12T04:50:35.779Z,1.50
2022-08-12T04:53:05.888Z,1.50
2022-08-12T04:55:35.655Z,1.67
2022-08-12T04:58:03.519Z,1.40
2022-08-12T05:00:31.668Z,1.73
2022-08-12T05:02:59.606Z,1.55
2022-08-12T05:05:35.229Z,1.55
2022-08-12T05:08:07.837Z,1.70
2022-08-12T05:10:36.220Z,1.63
2022-08-12T05:13:11.048Z,2.03
2022-08-12T05:16:02.489Z,1.35
2022-08-12T05:18:29.683Z,1.40
2022-08-12T05:20:59.821Z,1.55
2022-08-12T05:23:28.871Z,1.42
2022-08-12T05:25:57.439Z,1.73
2022-08-12T05:28:27.275Z,1.60
2022-08-12T05:30:56.880Z,1.63
2022-08-12T05:33:26.510Z,1.30
2022-08-12T05:35:54.583Z,1.60
2022-08-12T05:38:41.274Z,1.50
2022-08-12T05:41:19.099Z,1.48
2022-08-12T05:43:49.440Z,1.40
2022-08-12T05:46:19.968Z,1.55
2022-08-12T05:48:49.385Z,2.63
2022-08-12T05:51:17.654Z,1.45
2022-08-12T05:53:46.787Z,1.30
2022-08-12T05:56:24.132Z,1.50
2022-08-12T05:58:54.534Z,1.20
2022-08-12T06:02:09.138Z,1.33
2022-08-12T06:04:12.414Z,1.58
2022-08-12T06:06:42.279Z,1.45
2022-08-12T06:09:12.235Z,1.42
2022-08-12T06:11:59.901Z,1.57
2022-08-12T06:14:31.674Z,1.40
2022-08-12T06:16:59.940Z,1.87
2022-08-12T06:20:26.684Z,1.30
2022-08-12T06:22:17.256Z,1.55
2022-08-12T06:24:48.418Z,1.30
2022-08-12T06:27:18.951Z,1.05
2022-08-12T06:30:08.874Z,1.13
2022-08-12T06:32:35.390Z,0.93
2022-08-12T06:35:25.825Z,1.60
2022-08-12T06:37:56.818Z,2.10
2022-08-12T06:40:44.687Z,1.20
2022-08-12T06:43:14.235Z,1.25
2022-08-12T06:45:46.720Z,1.23
2022-08-12T06:48:16.457Z,1.15
2022-08-12T06:50:44.495Z,1.55
2022-08-12T06:53:12.367Z,1.10
2022-08-12T06:55:56.772Z,1.05
2022-08-12T06:58:27.207Z,1.15
2022-08-12T07:00:57.757Z,1.15
2022-08-12T07:03:28.653Z,1.13
2022-08-12T07:05:59.449Z,1.20
2022-08-12T07:11:00.650Z,1.10
2022-08-12T07:14:11.493Z,1.10
2022-08-12T07:16:26.963Z,0.77
2022-08-12T07:18:56.773Z,1.00
2022-08-12T07:22:02.081Z,0.88
2022-08-12T07:24:16.016Z,1.35
2022-08-12T07:26:45.163Z,1.00
2022-08-12T07:29:14.820Z,1.30
2022-08-12T07:31:42.962Z,0.80
2022-08-12T07:34:10.874Z,0.90
2022-08-12T07:36:39.254Z,0.90
2022-08-12T07:39:07.585Z,0.93
2022-08-12T07:41:38.967Z,0.93
2022-08-12T07:44:10.425Z,0.98
2022-08-12T07:46:41.725Z,0.90
2022-08-12T07:49:12.989Z,0.90
2022-08-12T07:51:43.053Z,0.98
2022-08-12T07:54:13.766Z,1.40
2022-08-12T07:56:43.799Z,1.05
2022-08-12T07:59:13.440Z,0.90
2022-08-12T08:01:42.374Z,0.95
2022-08-12T08:04:26.702Z,0.90
2022-08-12T08:06:54.829Z,0.90
2022-08-12T08:09:25.001Z,0.80
2022-08-12T08:12:19.067Z,0.82
2022-08-12T08:14:50.173Z,0.70
2022-08-12T08:17:18.515Z,0.80
2022-08-12T08:20:02.721Z,1.02
2022-08-12T08:22:42.071Z,0.95
2022-08-12T08:25:34.775Z,1.00
2022-08-12T08:28:02.310Z,0.63
2022-08-12T08:30:34.475Z,0.90
2022-08-12T08:33:02.367Z,1.13
2022-08-12T08:35:46.791Z,1.15
2022-08-12T08:38:25.509Z,0.85
2022-08-12T08:42:17.156Z,0.90
2022-08-12T08:44:07.859Z,0.90
2022-08-12T08:46:38.068Z,0.90
2022-08-12T08:49:06.842Z,0.90
2022-08-12T08:51:35.247Z,0.60
2022-08-12T08:54:03.128Z,1.20
2022-08-12T08:56:31.124Z,0.80
2022-08-12T08:58:59.023Z,0.52
2022-08-12T09:01:37.991Z,0.98
2022-08-12T09:05:07.064Z,0.70
2022-08-12T09:07:00.119Z,0.80
2022-08-12T09:10:01.485Z,0.68
2022-08-12T09:12:36.174Z,1.13
2022-08-12T09:15:16.913Z,0.65
2022-08-12T09:17:57.056Z,0.68
2022-08-12T09:20:30.776Z,0.90
2022-08-12T09:22:59.497Z,0.70
2022-08-12T09:25:33.394Z,1.02
2022-08-12T09:28:05.118Z,0.90
2022-08-12T09:30:42.307Z,0.82
2022-08-12T09:33:18.806Z,0.73
2022-08-12T09:36:05.587Z,0.73
2022-08-12T09:38:35.603Z,0.70
2022-08-12T09:42:33.858Z,0.70
2022-08-12T09:44:38.420Z,0.50
2022-08-12T09:46:59.501Z,0.60
2022-08-12T09:49:28.282Z,0.90
2022-08-12T09:51:57.971Z,0.80
2022-08-12T09:54:33.274Z,0.70
2022-08-12T09:58:07.582Z,0.70
2022-08-12T10:00:15.330Z,0.90
2022-08-12T10:03:01.384Z,0.70
2022-08-12T10:06:27.923Z,0.60
2022-08-12T10:08:30.391Z,0.77
2022-08-12T10:11:18.647Z,0.57
2022-08-12T10:13:51.149Z,0.73
2022-08-12T10:16:22.467Z,0.60
2022-08-12T10:18:53.879Z,0.63
2022-08-12T10:21:35.681Z,0.88
2022-08-12T10:24:09.489Z,0.60
2022-08-12T10:26:57.194Z,0.65
2022-08-12T10:30:38.908Z,0.60
2022-08-12T10:33:02.438Z,0.70
2022-08-12T10:35:16.233Z,0.57
2022-08-12T10:38:36.386Z,0.70
2022-08-12T10:40:55.042Z,1.10
2022-08-12T10:43:55.948Z,0.68
2022-08-12T10:46:30.939Z,0.70
2022-08-12T10:49:06.732Z,0.60
2022-08-12T10:52:32.373Z,0.50
2022-08-12T10:54:41.393Z,0.90
2022-08-12T10:57:18.518Z,0.70
2022-08-12T11:00:33.701Z,0.65
2022-08-12T11:04:35.952Z,0.45
2022-08-12T11:07:09.553Z,0.70
2022-08-12T11:08:38.603Z,0.60
2022-08-12T11:11:13.656Z,0.60
2022-08-12T11:13:48.614Z,0.70
2022-08-12T11:16:22.091Z,0.60
2022-08-12T11:18:55.288Z,0.70
2022-08-12T11:21:56.127Z,0.80
2022-08-12T11:24:30.043Z,0.75
2022-08-12T11:27:02.148Z,0.65
2022-08-12T11:30:05.508Z,0.73
2022-08-12T11:32:26.065Z,0.80
2022-08-12T11:34:55.207Z,0.55
2022-08-12T11:37:25.377Z,0.60
2022-08-12T11:42:35.780Z,0.60
2022-08-12T11:45:10.511Z,0.80
2022-08-12T11:47:40.404Z,0.73
2022-08-12T11:50:11.879Z,0.70
2022-08-12T11:52:56.097Z,0.50
2022-08-12T11:55:27.505Z,0.50
2022-08-12T11:58:42.266Z,0.60
2022-08-12T12:03:44.032Z,0.50
2022-08-12T12:06:18.232Z,0.57
2022-08-12T12:08:51.537Z,0.55
2022-08-12T12:11:24.711Z,0.70
2022-08-12T12:14:07.546Z,0.50
2022-08-12T12:16:42.097Z,0.70
2022-08-12T12:19:19.147Z,0.55
2022-08-12T12:21:49.359Z,0.40
2022-08-12T12:24:21.926Z,0.57
2022-08-12T12:26:59.790Z,0.55
2022-08-12T12:30:19.595Z,0.88
2022-08-12T12:32:29.197Z,0.65
2022-08-12T12:36:05.304Z,0.60
2022-08-12T12:38:04.287Z,0.50
2022-08-12T12:40:39.735Z,0.60
2022-08-12T12:43:09.227Z,0.60
2022-08-12T12:45:39.533Z,0.63
2022-08-12T12:48:17.222Z,0.40
2022-08-12T12:50:51.636Z,0.52
2022-08-12T12:54:06.867Z,0.43
2022-08-12T12:56:16.685Z,0.45
2022-08-12T12:58:44.844Z,0.50
2022-08-12T13:01:26.704Z,0.52
2022-08-12T13:04:02.155Z,0.57
2022-08-12T13:06:32.391Z,0.73
2022-08-12T13:09:03.816Z,0.40
2022-08-12T13:11:41.472Z,0.65
2022-08-12T13:14:29.118Z,0.50
2022-08-12T13:17:02.320Z,0.57
2022-08-12T13:19:43.431Z,0.60
2022-08-12T13:22:20.067Z,0.40
2022-08-12T13:24:54.842Z,0.40
2022-08-12T13:27:35.077Z,0.50
2022-08-12T13:30:11.676Z,0.40
2022-08-12T13:32:42.102Z,0.50
2022-08-12T13:35:19.673Z,0.40
2022-08-12T13:37:55.177Z,0.50
2022-08-12T13:40:24.993Z,0.40
2022-08-12T13:42:58.019Z,0.50
2022-08-12T13:45:27.098Z,0.50
2022-08-12T13:48:00.160Z,0.40
2022-08-12T13:50:33.964Z,0.40
2022-08-12T13:53:06.307Z,0.57
2022-08-12T13:55:59.617Z,0.45
2022-08-12T13:58:32.979Z,0.57
2022-08-12T14:01:05.717Z,0.50
2022-08-12T14:03:51.214Z,0.50
2022-08-12T14:06:26.009Z,0.60
2022-08-12T14:09:00.140Z,0.40
2022-08-12T14:11:51.134Z,0.43
2022-08-12T14:14:27.167Z,0.50
2022-08-12T14:16:55.195Z,0.40
2022-08-12T14:19:27.125Z,0.40
2022-08-12T14:22:10.559Z,0.30
2022-08-12T14:24:40.450Z,0.55
2022-08-12T14:27:11.302Z,0.40
2022-08-12T14:30:05.494Z,0.50
2022-08-12T14:32:35.012Z,0.40
2022-08-12T14:35:09.277Z,0.40
2022-08-12T14:37:56.106Z,0.30
2022-08-12T14:40:27.844Z,0.40
2022-08-12T14:42:57.517Z,0.40
2022-08-12T14:45:44.857Z,0.40
2022-08-12T14:48:18.505Z,0.52
2022-08-12T14:52:10.295Z,0.30
2022-08-12T14:54:52.900Z,0.40
2022-08-12T14:59:57.788Z,0.52
2022-08-12T15:02:21.013Z,0.40
2022-08-12T15:04:59.129Z,0.40
2022-08-12T15:07:43.822Z,0.50
2022-08-12T15:10:31.221Z,0.30
2022-08-12T15:13:07.693Z,0.38
2022-08-12T15:15:44.082Z,0.50
2022-08-12T15:18:21.459Z,0.50
2022-08-12T15:20:51.285Z,0.45
2022-08-12T15:23:22.038Z,0.40
2022-08-12T15:25:59.896Z,0.60
2022-08-12T15:28:37.138Z,0.40
2022-08-12T15:31:21.364Z,0.32
2022-08-12T15:33:55.241Z,0.38
2022-08-12T15:39:17.129Z,0.40
2022-08-12T15:41:49.066Z,0.38
2022-08-12T15:44:41.557Z,0.38
2022-08-12T15:47:07.800Z,0.40
2022-08-12T15:49:43.460Z,0.38
2022-08-12T15:52:28.088Z,0.40
2022-08-12T15:54:58.779Z,0.50
2022-08-12T15:57:28.647Z,0.50
2022-08-12T16:00:07.349Z,0.40
2022-08-12T16:02:47.283Z,0.57
2022-08-12T16:06:12.797Z,0.30
2022-08-12T16:08:11.620Z,0.32
2022-08-12T16:10:44.787Z,0.40
2022-08-12T16:13:18.214Z,0.30
2022-08-12T16:16:03.290Z,0.30
2022-08-12T16:18:37.258Z,0.40
2022-08-12T16:21:06.425Z,0.40
2022-08-12T16:23:55.315Z,0.40
2022-08-12T16:26:32.174Z,0.40
2022-08-12T16:29:14.566Z,0.35
2022-08-12T16:31:43.634Z,0.50
2022-08-12T16:34:39.795Z,0.35
2022-08-12T16:37:08.639Z,0.40
2022-08-12T16:39:59.991Z,0.38
2022-08-12T16:42:28.551Z,0.55
2022-08-12T16:45:00.384Z,0.30
2022-08-12T16:47:57.298Z,0.40
2022-08-12T16:50:21.756Z,0.43
2022-08-12T16:53:02.189Z,0.55
2022-08-12T16:55:42.179Z,0.35
2022-08-12T16:58:25.589Z,0.38
2022-08-12T17:01:02.129Z,0.50
2022-08-12T17:03:32.477Z,0.50
2022-08-12T17:06:06.425Z,2.33
2022-08-12T17:08:34.750Z,2.33
2022-08-12T17:11:02.564Z,2.42
2022-08-12T17:13:36.214Z,2.30
2022-08-12T17:16:24.118Z,3.33
2022-08-12T17:18:57.680Z,3.95
2022-08-12T17:21:40.253Z,3.67
2022-08-12T17:24:14.997Z,3.10
2022-08-12T17:26:49.393Z,2.90
2022-08-12T17:29:24.355Z,3.08
2022-08-12T17:32:11.277Z,2.20
2022-08-12T17:34:56.974Z,2.20
2022-08-12T17:37:24.888Z,2.10
2022-08-12T17:40:15.818Z,1.52
2022-08-12T17:42:43.754Z,1.67
2022-08-12T17:45:19.459Z,1.33
2022-08-12T17:48:01.729Z,1.98
2022-08-12T17:50:36.771Z,1.50
2022-08-12T17:53:07.828Z,1.00
2022-08-12T17:55:44.004Z,1.30
2022-08-12T17:58:15.924Z,1.15
2022-08-12T18:00:45.930Z,0.85
2022-08-12T18:03:57.679Z,0.77
2022-08-12T18:06:13.659Z,0.70
2022-08-12T18:08:43.506Z,0.60
2022-08-12T18:12:05.746Z,0.60
2022-08-12T18:14:29.331Z,0.55
2022-08-12T18:17:01.113Z,0.77
2022-08-12T18:19:34.055Z,0.70
2022-08-12T18:22:22.245Z,0.60
2022-08-12T18:25:03.807Z,0.43
2022-08-12T18:27:45.603Z,0.55
2022-08-12T18:30:29.077Z,0.45
2022-08-12T18:33:03.853Z,0.40
2022-08-12T18:35:47.075Z,0.50
2022-08-12T18:38:24.734Z,0.43
2022-08-12T18:41:20.946Z,0.40
2022-08-12T18:44:02.721Z,1.20
2022-08-12T18:46:47.480Z,0.52
2022-08-12T18:49:21.677Z,0.40
2022-08-12T18:52:02.511Z,0.40
2022-08-12T18:54:35.620Z,0.50
2022-08-12T18:57:16.198Z,0.60
2022-08-12T19:00:01.924Z,0.40
2022-08-12T19:02:33.006Z,0.57
2022-08-12T19:05:09.298Z,0.50
2022-08-12T19:07:59.903Z,0.60
2022-08-12T19:10:32.531Z,0.50
2022-08-12T19:13:24.124Z,0.45
2022-08-12T19:15:57.482Z,0.60
2022-08-12T19:18:29.096Z,0.50
2022-08-12T19:20:58.590Z,0.50
2022-08-12T19:23:35.417Z,0.50
2022-08-12T19:26:05.146Z,0.65
2022-08-12T19:28:36.445Z,0.60
2022-08-12T19:31:56.719Z,0.70
2022-08-12T19:37:26.672Z,1.00
2022-08-12T19:40:10.059Z,0.70
2022-08-12T19:43:00.717Z,0.70
2022-08-12T19:45:43.720Z,0.70
2022-08-12T19:48:20.411Z,0.68
2022-08-12T19:50:53.035Z,0.77
2022-08-12T19:53:23.369Z,0.60
2022-08-12T19:55:54.871Z,0.55
2022-08-12T19:58:24.470Z,0.68
2022-08-12T20:00:54.526Z,0.40
2022-08-12T20:03:38.665Z,0.63
2022-08-12T20:06:14.056Z,0.73
2022-08-12T20:08:49.065Z,0.60
2022-08-12T20:12:13.579Z,0.70
2022-08-12T20:14:19.013Z,0.63
2022-08-12T20:16:52.638Z,0.60
2022-08-12T20:19:24.565Z,0.75
2022-08-12T20:22:15.063Z,0.68
2022-08-12T20:24:51.576Z,0.60
2022-08-12T20:27:29.705Z,0.60
2022-08-12T20:30:15.361Z,0.50
2022-08-12T20:32:55.080Z,0.77
2022-08-12T20:36:07.066Z,0.50
2022-08-12T20:38:26.376Z,0.75
2022-08-12T20:40:55.461Z,0.60
2022-08-12T20:43:28.004Z,0.70
2022-08-12T20:45:57.680Z,0.70
2022-08-12T20:48:29.634Z,0.65
2022-08-12T20:50:58.053Z,0.68
2022-08-12T20:53:53.975Z,0.63
2022-08-12T20:56:30.859Z,0.50
2022-08-12T20:59:04.942Z,0.57
2022-08-12T21:01:36.654Z,0.63
2022-08-12T21:07:08.318Z,0.50
2022-08-12T21:09:41.438Z,0.68
2022-08-12T21:12:31.456Z,0.77
2022-08-12T21:15:17.434Z,0.63
2022-08-12T21:18:11.320Z,0.60
2022-08-12T21:20:49.603Z,0.70
2022-08-12T21:23:19.062Z,0.43
2022-08-12T21:25:48.161Z,0.65
2022-08-12T21:28:18.932Z,0.60
2022-08-12T21:34:06.639Z,0.50
2022-08-12T21:36:35.010Z,0.50
2022-08-12T21:39:18.193Z,0.60
2022-08-12T21:41:51.922Z,0.60
2022-08-12T21:44:24.135Z,0.70
2022-08-12T21:47:21.796Z,0.83
2022-08-12T21:50:02.982Z,0.70
2022-08-12T21:52:36.191Z,0.52
2022-08-12T21:55:08.453Z,0.63
2022-08-12T21:57:50.717Z,0.75
2022-08-12T22:00:31.512Z,0.70
2022-08-12T22:03:54.975Z,0.63
2022-08-12T22:06:31.419Z,0.60
2022-08-12T22:09:17.196Z,0.60
2022-08-12T22:11:49.378Z,0.63
2022-08-12T22:14:25.311Z,0.70
2022-08-12T22:16:55.959Z,0.75
2022-08-12T22:19:26.918Z,0.70
2022-08-12T22:21:58.377Z,0.80
2022-08-12T22:24:29.518Z,0.88
2022-08-12T22:26:58.907Z,0.77
2022-08-12T22:29:44.400Z,0.90
2022-08-12T22:32:13.249Z,0.82
2022-08-12T22:34:46.123Z,0.70
2022-08-12T22:37:20.040Z,0.70
2022-08-12T22:39:49.101Z,0.77
2022-08-12T22:42:35.701Z,0.70
2022-08-12T22:45:23.221Z,0.70
2022-08-12T22:47:55.213Z,0.70
2022-08-12T22:50:28.684Z,0.70
2022-08-12T22:53:14.972Z,0.70
2022-08-12T22:56:00.159Z,0.75
2022-08-12T22:58:35.238Z,0.60
2022-08-12T23:01:03.689Z,0.60
2022-08-12T23:03:48.004Z,1.30
2022-08-12T23:06:21.913Z,0.68
2022-08-12T23:08:50.689Z,0.70
2022-08-12T23:11:23.972Z,1.08
2022-08-12T23:13:56.101Z,0.70
2022-08-12T23:19:10.467Z,0.43
2022-08-12T23:22:05.889Z,0.60
2022-08-12T23:24:55.711Z,0.80
2022-08-12T23:27:51.287Z,0.80
2022-08-12T23:30:31.699Z,0.70
2022-08-12T23:33:02.605Z,0.70
2022-08-12T23:35:45.575Z,0.68
2022-08-12T23:38:30.794Z,0.80
2022-08-12T23:41:01.283Z,0.77
2022-08-12T23:43:39.728Z,0.75
2022-08-12T23:46:10.579Z,0.77
2022-08-12T23:48:40.125Z,0.80
2022-08-12T23:51:22.274Z,0.90
2022-08-12T23:53:56.064Z,0.88
2022-08-12T23:56:25.507Z,0.75
2022-08-12T23:58:57.581Z,0.60
